createdAt,value
2023-04-15T00:00:56.192Z,100260.34
2023-04-15T00:03:22.859Z,100263.38
2023-04-15T00:05:49.530Z,100263.97
2023-04-15T00:08:15.986Z,100252.28
2023-04-15T00:10:44.168Z,100254.28
2023-04-15T00:13:10.650Z,100251.94
2023-04-15T00:15:37.786Z,100249.22
2023-04-15T00:18:04.473Z,100257.78
2023-04-15T00:20:31.333Z,100252.19
2023-04-15T00:22:58.923Z,100258.66
2023-04-15T00:25:25.266Z,100252.69
2023-04-15T00:27:51.750Z,100259.50
2023-04-15T00:30:18.931Z,100248.91
2023-04-15T00:32:45.555Z,100254.03
2023-04-15T00:35:12.139Z,100258.25
2023-04-15T00:37:38.571Z,100250.50
2023-04-15T00:40:05.540Z,100249.56
2023-04-15T00:42:32.041Z,100249.81
2023-04-15T00:44:58.509Z,100244.03
2023-04-15T00:47:26.164Z,100246.09
2023-04-15T00:49:52.738Z,100243.47
2023-04-15T00:52:19.192Z,100245.81
2023-04-15T00:54:45.589Z,100246.72
2023-04-15T00:57:12.041Z,100247.59
2023-04-15T00:59:38.550Z,100249.16
2023-04-15T01:02:05.653Z,100246.34
2023-04-15T01:04:32.614Z,100245.19
2023-04-15T01:06:59.183Z,100242.97
2023-04-15T01:09:25.588Z,100245.91
2023-04-15T01:11:52.385Z,100249.94
2023-04-15T01:14:19.670Z,100242.88
2023-04-15T01:16:46.924Z,100244.53
2023-04-15T01:19:16.541Z,100244.13
2023-04-15T01:21:43.233Z,100241.13
2023-04-15T01:24:11.131Z,100246.91
2023-04-15T01:26:38.564Z,100237.78
2023-04-15T01:29:04.882Z,100240.81
2023-04-15T01:31:31.177Z,100245.78
2023-04-15T01:33:58.444Z,100244.38
2023-04-15T01:36:24.856Z,100244.84
2023-04-15T01:38:51.871Z,100247.78
2023-04-15T01:41:25.339Z,100253.56
2023-04-15T01:43:52.474Z,100252.72
2023-04-15T01:46:19.111Z,100257.28
2023-04-15T01:48:45.752Z,100250.94
2023-04-15T01:51:12.249Z,100247.56
2023-04-15T01:53:38.651Z,100251.22
2023-04-15T01:56:05.203Z,100257.06
2023-04-15T01:58:31.668Z,100248.88
2023-04-15T02:00:58.080Z,100249.81
2023-04-15T02:03:25.406Z,100245.00
2023-04-15T02:05:52.244Z,100241.63
2023-04-15T02:08:18.647Z,100241.25
2023-04-15T02:10:44.974Z,100251.03
2023-04-15T02:13:11.478Z,100248.19
2023-04-15T02:15:38.137Z,100242.81
2023-04-15T02:18:04.729Z,100243.25
2023-04-15T02:20:31.068Z,100242.81
2023-04-15T02:22:57.504Z,100242.34
2023-04-15T02:25:24.013Z,100246.56
2023-04-15T02:27:50.616Z,100242.66
2023-04-15T02:30:17.088Z,100252.06
2023-04-15T02:32:44.879Z,100250.06
2023-04-15T02:35:11.577Z,100259.19
2023-04-15T02:37:43.313Z,100252.19
2023-04-15T02:40:13.384Z,100257.00
2023-04-15T02:42:40.392Z,100260.94
2023-04-15T02:45:07.928Z,100259.44
2023-04-15T02:47:36.066Z,100261.53
2023-04-15T02:50:03.753Z,100267.41
2023-04-15T02:52:30.319Z,100266.22
2023-04-15T02:55:00.563Z,100265.47
2023-04-15T02:57:29.020Z,100268.41
2023-04-15T02:59:55.805Z,100272.53
2023-04-15T03:02:22.367Z,100266.41
2023-04-15T03:04:49.118Z,100272.13
2023-04-15T03:07:15.555Z,100276.94
2023-04-15T03:09:42.093Z,100276.47
2023-04-15T03:12:08.448Z,100278.00
2023-04-15T03:14:34.891Z,100281.56
2023-04-15T03:17:01.328Z,100275.09
2023-04-15T03:19:27.667Z,100284.53
2023-04-15T03:21:54.185Z,100282.44
2023-04-15T03:24:20.665Z,100288.47
2023-04-15T03:26:47.040Z,100286.78
2023-04-15T03:29:13.538Z,100285.44
2023-04-15T03:31:40.028Z,100287.97
2023-04-15T03:34:06.552Z,100291.09
2023-04-15T03:36:33.316Z,100297.63
2023-04-15T03:39:00.053Z,100293.81
2023-04-15T03:41:26.602Z,100301.09
2023-04-15T03:43:53.117Z,100300.19
2023-04-15T03:46:19.862Z,100304.38
2023-04-15T03:48:47.284Z,100310.47
2023-04-15T03:51:13.702Z,100304.06
2023-04-15T03:53:40.311Z,100313.97
2023-04-15T03:56:06.941Z,100305.88
2023-04-15T03:58:33.226Z,100316.44
2023-04-15T04:00:59.759Z,100306.19
2023-04-15T04:03:26.295Z,100303.69
2023-04-15T04:05:52.844Z,100310.81
2023-04-15T04:08:20.350Z,100305.72
2023-04-15T04:10:46.771Z,100312.16
2023-04-15T04:13:15.652Z,100316.22
2023-04-15T04:15:41.980Z,100306.34
2023-04-15T04:18:08.373Z,100309.25
2023-04-15T04:20:35.565Z,100313.31
2023-04-15T04:23:01.964Z,100312.31
2023-04-15T04:25:28.321Z,100315.75
2023-04-15T04:27:55.524Z,100329.28
2023-04-15T04:30:22.178Z,100321.66
2023-04-15T04:32:51.610Z,100325.63
2023-04-15T04:35:18.038Z,100317.53
2023-04-15T04:37:44.404Z,100325.09
2023-04-15T04:40:11.373Z,100325.75
2023-04-15T04:42:39.821Z,100331.13
2023-04-15T04:45:07.394Z,100334.28
2023-04-15T04:47:33.978Z,100328.91
2023-04-15T04:50:00.487Z,100333.19
2023-04-15T04:52:26.853Z,100327.25
2023-04-15T04:54:53.296Z,100332.03
2023-04-15T04:57:19.642Z,100338.03
2023-04-15T04:59:46.513Z,100349.56
2023-04-15T05:02:13.070Z,100342.50
2023-04-15T05:04:39.550Z,100338.88
2023-04-15T05:07:06.078Z,100344.19
2023-04-15T05:09:33.097Z,100350.59
2023-04-15T05:11:59.427Z,100355.03
2023-04-15T05:14:25.967Z,100362.56
2023-04-15T05:16:52.438Z,100368.69
2023-04-15T05:19:18.773Z,100363.22
2023-04-15T05:21:45.196Z,100376.03
2023-04-15T05:24:11.615Z,100374.69
2023-04-15T05:26:37.946Z,100380.84
2023-04-15T05:29:04.462Z,100373.81
2023-04-15T05:31:31.417Z,100373.97
2023-04-15T05:33:58.956Z,100372.47
2023-04-15T05:36:26.470Z,100375.59
2023-04-15T05:38:52.845Z,100375.38
2023-04-15T05:41:20.029Z,100380.25
2023-04-15T05:43:46.600Z,100384.38
2023-04-15T05:46:13.119Z,100390.53
2023-04-15T05:48:39.596Z,100394.34
2023-04-15T05:51:06.452Z,100398.41
2023-04-15T05:53:32.986Z,100398.09
2023-04-15T05:55:59.474Z,100398.84
2023-04-15T05:58:26.002Z,100392.31
2023-04-15T06:00:52.998Z,100398.59
2023-04-15T06:03:19.759Z,100401.72
2023-04-15T06:05:46.160Z,100406.38
2023-04-15T06:08:12.549Z,100411.69
2023-04-15T06:10:38.904Z,100413.47
2023-04-15T06:13:05.780Z,100415.94
2023-04-15T06:15:32.256Z,100414.91
2023-04-15T06:17:58.859Z,100414.22
2023-04-15T06:20:25.489Z,100416.47
2023-04-15T06:22:52.141Z,100408.34
2023-04-15T06:25:18.560Z,100415.75
2023-04-15T06:27:44.894Z,100415.84
2023-04-15T06:30:12.022Z,100421.09
2023-04-15T06:32:38.573Z,100421.34
2023-04-15T06:35:05.516Z,100423.72
2023-04-15T06:37:32.615Z,100424.13
2023-04-15T06:39:59.094Z,100422.53
2023-04-15T06:42:25.760Z,100430.03
2023-04-15T06:44:52.176Z,100427.66
2023-04-15T06:47:19.865Z,100435.22
2023-04-15T06:49:46.371Z,100442.28
2023-04-15T06:52:12.990Z,100441.44
2023-04-15T06:54:39.567Z,100453.09
2023-04-15T06:57:07.097Z,100448.97
2023-04-15T06:59:33.505Z,100443.19
2023-04-15T07:01:59.960Z,100445.59
2023-04-15T07:04:26.412Z,100453.63
2023-04-15T07:06:52.842Z,100450.22
2023-04-15T07:09:19.860Z,100448.75
2023-04-15T07:11:46.169Z,100453.47
2023-04-15T07:14:12.657Z,100458.28
2023-04-15T07:16:39.099Z,100452.13
2023-04-15T07:19:05.794Z,100455.81
2023-04-15T07:21:32.529Z,100463.81
2023-04-15T07:23:58.836Z,100461.38
2023-04-15T07:26:25.167Z,100460.84
2023-04-15T07:28:51.642Z,100466.31
2023-04-15T07:31:18.148Z,100464.25
2023-04-15T07:33:44.662Z,100464.94
2023-04-15T07:36:11.153Z,100462.41
2023-04-15T07:38:37.531Z,100472.28
2023-04-15T07:41:04.992Z,100469.06
2023-04-15T07:43:31.381Z,100476.13
2023-04-15T07:45:57.801Z,100475.34
2023-04-15T07:48:24.213Z,100475.06
2023-04-15T07:50:50.573Z,100478.28
2023-04-15T07:53:16.992Z,100485.34
2023-04-15T07:55:43.412Z,100479.91
2023-04-15T07:58:09.849Z,100479.41
2023-04-15T08:00:38.245Z,100483.78
2023-04-15T08:03:04.917Z,100487.44
2023-04-15T08:05:31.405Z,100491.41
2023-04-15T08:07:58.554Z,100485.19
2023-04-15T08:10:24.999Z,100493.28
2023-04-15T08:12:54.183Z,100503.69
2023-04-15T08:15:21.486Z,100496.38
2023-04-15T08:17:47.940Z,100500.97
2023-04-15T08:20:14.461Z,100508.53
2023-04-15T08:22:41.464Z,100506.78
2023-04-15T08:25:09.116Z,100509.00
2023-04-15T08:27:36.008Z,100517.16
2023-04-15T08:30:04.595Z,100514.97
2023-04-15T08:32:32.162Z,100523.94
2023-04-15T08:34:58.590Z,100518.78
2023-04-15T08:37:25.132Z,100524.84
2023-04-15T08:39:54.893Z,100528.59
2023-04-15T08:42:28.046Z,100525.25
2023-04-15T08:44:55.589Z,100528.25
2023-04-15T08:47:24.393Z,100535.56
2023-04-15T08:49:54.252Z,100542.91
2023-04-15T08:52:20.931Z,100541.69
2023-04-15T08:54:48.138Z,100542.31
2023-04-15T08:57:15.489Z,100541.06
2023-04-15T08:59:43.587Z,100529.97
2023-04-15T09:02:10.613Z,100536.56
2023-04-15T09:04:37.031Z,100539.81
2023-04-15T09:07:03.475Z,100537.09
2023-04-15T09:09:29.875Z,100540.38
2023-04-15T09:11:56.720Z,100546.63
2023-04-15T09:14:23.277Z,100551.81
2023-04-15T09:17:03.805Z,100553.44
2023-04-15T09:19:31.499Z,100557.81
2023-04-15T09:21:59.640Z,100556.13
2023-04-15T09:24:33.837Z,100555.06
2023-04-15T09:27:00.475Z,100556.19
2023-04-15T09:29:26.921Z,100563.03
2023-04-15T09:31:53.406Z,100558.91
2023-04-15T09:34:20.221Z,100571.44
2023-04-15T09:36:46.814Z,100578.03
2023-04-15T09:39:14.345Z,100568.97
2023-04-15T09:41:40.916Z,100568.50
2023-04-15T09:44:07.325Z,100575.94
2023-04-15T09:46:44.134Z,100571.44
2023-04-15T09:49:12.183Z,100574.53
2023-04-15T09:51:38.868Z,100571.34
2023-04-15T09:54:05.819Z,100583.13
2023-04-15T09:56:36.081Z,100580.50
2023-04-15T09:59:02.576Z,100581.56
2023-04-15T10:01:29.703Z,100590.03
2023-04-15T10:03:57.927Z,100586.59
2023-04-15T10:06:26.896Z,100601.94
2023-04-15T10:08:54.292Z,100603.53
2023-04-15T10:11:23.960Z,100600.13
2023-04-15T10:13:51.211Z,100606.22
2023-04-15T10:16:21.125Z,100598.81
2023-04-15T10:18:53.330Z,100612.16
2023-04-15T10:21:20.813Z,100610.78
2023-04-15T10:23:47.673Z,100612.41
2023-04-15T10:26:15.532Z,100622.03
2023-04-15T10:28:42.098Z,100612.19
2023-04-15T10:31:11.834Z,100611.28
2023-04-15T10:33:39.612Z,100618.03
2023-04-15T10:36:07.794Z,100611.97
2023-04-15T10:38:43.221Z,100615.53
2023-04-15T10:41:33.327Z,100617.00
2023-04-15T10:43:59.934Z,100616.09
2023-04-15T10:46:43.931Z,100629.13
2023-04-15T10:49:24.368Z,100640.25
2023-04-15T10:51:58.845Z,100625.00
2023-04-15T10:54:25.328Z,100634.81
2023-04-15T10:57:07.181Z,100625.25
2023-04-15T10:59:38.047Z,100627.72
2023-04-15T11:02:07.234Z,100634.28
2023-04-15T11:04:56.279Z,100637.00
2023-04-15T11:07:44.679Z,100638.38
2023-04-15T11:10:14.076Z,100643.00
2023-04-15T11:12:41.030Z,100634.81
2023-04-15T11:15:31.008Z,100647.38
2023-04-15T11:17:59.322Z,100645.19
2023-04-15T11:20:26.118Z,100652.84
2023-04-15T11:23:08.333Z,100652.59
2023-04-15T11:25:40.813Z,100665.94
2023-04-15T11:28:10.214Z,100661.59
2023-04-15T11:30:37.965Z,100656.13
2023-04-15T11:33:06.785Z,100665.41
2023-04-15T11:35:33.752Z,100671.13
2023-04-15T11:38:04.060Z,100667.34
2023-04-15T11:40:31.487Z,100670.59
2023-04-15T11:43:24.424Z,100675.25
2023-04-15T11:46:00.942Z,100681.22
2023-04-15T11:48:33.154Z,100685.00
2023-04-15T11:51:01.920Z,100687.50
2023-04-15T11:53:48.587Z,100689.44
2023-04-15T11:56:18.823Z,100694.91
2023-04-15T11:58:46.393Z,100695.94
2023-04-15T12:01:13.032Z,100700.00
2023-04-15T12:03:45.427Z,100701.31
2023-04-15T12:06:21.824Z,100706.28
2023-04-15T12:09:04.752Z,100713.06
2023-04-15T12:11:44.548Z,100722.59
2023-04-15T12:14:12.743Z,100719.06
2023-04-15T12:16:48.891Z,100730.75
2023-04-15T12:19:22.842Z,100737.31
2023-04-15T12:21:49.432Z,100740.25
2023-04-15T12:24:20.980Z,100744.47
2023-04-15T12:26:53.674Z,100744.97
2023-04-15T12:29:24.715Z,100744.13
2023-04-15T12:31:58.942Z,100747.91
2023-04-15T12:34:33.638Z,100762.13
2023-04-15T12:37:01.625Z,100766.28
2023-04-15T12:39:32.635Z,100771.38
2023-04-15T12:42:00.351Z,100789.06
2023-04-15T12:44:28.034Z,100784.56
2023-04-15T12:46:54.834Z,100784.56
2023-04-15T12:49:22.399Z,100787.78
2023-04-15T12:51:50.404Z,100796.94
2023-04-15T12:54:19.986Z,100796.81
2023-04-15T12:56:47.480Z,100808.47
2023-04-15T12:59:15.368Z,100807.53
2023-04-15T13:01:41.861Z,100816.19
2023-04-15T13:04:08.865Z,100816.94
2023-04-15T13:06:36.182Z,100822.63
2023-04-15T13:09:05.632Z,100821.63
2023-04-15T13:11:33.963Z,100819.94
2023-04-15T13:14:01.804Z,100824.66
2023-04-15T13:16:28.399Z,100826.41
2023-04-15T13:18:54.912Z,100832.59
2023-04-15T13:21:21.268Z,100835.06
2023-04-15T13:23:49.814Z,100839.81
2023-04-15T13:26:16.378Z,100840.69
2023-04-15T13:28:42.827Z,100845.94
2023-04-15T13:31:09.206Z,100847.28
2023-04-15T13:33:35.738Z,100846.19
2023-04-15T13:36:02.244Z,100850.50
2023-04-15T13:38:28.549Z,100852.41
2023-04-15T13:40:55.062Z,100860.38
2023-04-15T13:43:21.614Z,100858.22
2023-04-15T13:45:48.145Z,100866.97
2023-04-15T13:48:14.681Z,100862.78
2023-04-15T13:50:45.117Z,100871.84
2023-04-15T13:53:12.888Z,100864.13
2023-04-15T13:55:42.734Z,100868.44
2023-04-15T13:58:10.197Z,100869.50
2023-04-15T14:00:36.712Z,100873.63
2023-04-15T14:03:03.548Z,100881.47
2023-04-15T14:05:30.360Z,100886.84
2023-04-15T14:07:56.798Z,100893.25
2023-04-15T14:10:23.228Z,100895.84
2023-04-15T14:12:49.686Z,100895.69
2023-04-15T14:15:16.260Z,100893.81
2023-04-15T14:17:42.768Z,100901.94
2023-04-15T14:20:09.820Z,100898.59
2023-04-15T14:22:36.288Z,100899.63
2023-04-15T14:25:02.772Z,100901.56
2023-04-15T14:27:29.286Z,100904.06
2023-04-15T14:29:55.646Z,100910.19
2023-04-15T14:32:22.009Z,100912.88
2023-04-15T14:34:48.378Z,100917.38
2023-04-15T14:37:14.687Z,100907.59
2023-04-15T14:39:41.092Z,100918.94
2023-04-15T14:42:07.543Z,100919.63
2023-04-15T14:44:34.029Z,100912.53
2023-04-15T14:47:00.678Z,100914.44
2023-04-15T14:49:27.341Z,100915.22
2023-04-15T14:51:53.668Z,100918.34
2023-04-15T14:54:21.918Z,100922.66
2023-04-15T14:56:48.787Z,100926.97
2023-04-15T14:59:15.270Z,100936.22
2023-04-15T15:01:41.715Z,100937.25
2023-04-15T15:04:10.328Z,100939.88
2023-04-15T15:06:36.882Z,100944.31
2023-04-15T15:09:03.754Z,100943.97
2023-04-15T15:11:30.384Z,100946.03
2023-04-15T15:13:57.067Z,100944.94
2023-04-15T15:16:23.591Z,100954.41
2023-04-15T15:18:51.298Z,100954.63
2023-04-15T15:21:18.433Z,100950.50
2023-04-15T15:23:45.228Z,100952.78
2023-04-15T15:26:12.392Z,100962.19
2023-04-15T15:28:38.787Z,100971.41
2023-04-15T15:31:05.513Z,100961.63
2023-04-15T15:33:32.806Z,100971.41
2023-04-15T15:35:59.362Z,100978.91
2023-04-15T15:38:26.214Z,100981.00
2023-04-15T15:40:52.748Z,100978.78
2023-04-15T15:43:19.097Z,100983.94
2023-04-15T15:45:45.780Z,100977.78
2023-04-15T15:48:12.404Z,100988.00
2023-04-15T15:50:38.906Z,100990.53
2023-04-15T15:53:05.307Z,100994.44
2023-04-15T15:55:31.778Z,100992.88
2023-04-15T15:57:58.175Z,100997.81
2023-04-15T16:00:24.615Z,101003.81
2023-04-15T16:03:06.775Z,101004.66
2023-04-15T16:05:34.385Z,101013.66
2023-04-15T16:08:00.840Z,101011.81
2023-04-15T16:10:27.794Z,101016.75
2023-04-15T16:12:54.341Z,101019.22
2023-04-15T16:15:22.555Z,101023.31
2023-04-15T16:17:49.007Z,101022.34
2023-04-15T16:20:15.629Z,101027.69
2023-04-15T16:22:42.210Z,101036.84
2023-04-15T16:25:09.038Z,101035.28
2023-04-15T16:27:43.523Z,101031.22
2023-04-15T16:30:22.260Z,101045.63
2023-04-15T16:32:48.765Z,101044.09
2023-04-15T16:35:16.790Z,101048.44
2023-04-15T16:37:43.227Z,101049.84
2023-04-15T16:40:10.078Z,101054.97
2023-04-15T16:42:36.776Z,101057.47
2023-04-15T16:45:03.458Z,101063.41
2023-04-15T16:47:29.789Z,101058.22
2023-04-15T16:49:56.190Z,101063.31
2023-04-15T16:52:22.749Z,101070.88
2023-04-15T16:54:49.074Z,101062.72
2023-04-15T16:57:15.418Z,101072.28
2023-04-15T16:59:41.799Z,101069.25
2023-04-15T17:02:12.292Z,101077.28
2023-04-15T17:04:39.712Z,101080.81
2023-04-15T17:07:06.690Z,101080.56
2023-04-15T17:09:33.044Z,101081.16
2023-04-15T17:11:59.493Z,101082.81
2023-04-15T17:14:27.649Z,101080.09
2023-04-15T17:16:54.190Z,101090.97
2023-04-15T17:19:20.617Z,101092.63
2023-04-15T17:21:47.087Z,101095.91
2023-04-15T17:24:13.460Z,101090.59
2023-04-15T17:26:39.863Z,101085.53
2023-04-15T17:29:06.778Z,101095.91
2023-04-15T17:31:33.493Z,101100.53
2023-04-15T17:34:07.161Z,101106.19
2023-04-15T17:36:36.583Z,101110.13
2023-04-15T17:39:03.564Z,101114.16
2023-04-15T17:41:30.174Z,101114.63
2023-04-15T17:43:56.508Z,101127.31
2023-04-15T17:46:22.818Z,101124.09
2023-04-15T17:48:49.439Z,101135.47
2023-04-15T17:51:17.056Z,101133.81
2023-04-15T17:53:43.398Z,101136.06
2023-04-15T17:56:09.820Z,101140.06
2023-04-15T17:58:36.209Z,101143.50
2023-04-15T18:01:02.854Z,101143.38
2023-04-15T18:03:29.284Z,101155.66
2023-04-15T18:05:55.934Z,101155.41
2023-04-15T18:08:22.293Z,101157.88
2023-04-15T18:10:48.639Z,101163.31
2023-04-15T18:13:15.027Z,101170.41
2023-04-15T18:15:41.508Z,101174.53
2023-04-15T18:18:07.901Z,101165.56
2023-04-15T18:20:34.363Z,101177.38
2023-04-15T18:23:00.796Z,101182.81
2023-04-15T18:25:27.201Z,101180.56
2023-04-15T18:27:55.001Z,101188.84
2023-04-15T18:30:21.381Z,101191.28
2023-04-15T18:32:47.784Z,101202.28
2023-04-15T18:35:14.338Z,101207.94
2023-04-15T18:37:40.696Z,101205.94
2023-04-15T18:40:07.681Z,101215.03
2023-04-15T18:42:34.234Z,101217.16
2023-04-15T18:45:00.801Z,101218.91
2023-04-15T18:47:27.844Z,101216.41
2023-04-15T18:49:54.406Z,101223.75
2023-04-15T18:52:21.236Z,101221.84
2023-04-15T18:54:47.575Z,101231.50
2023-04-15T18:57:14.027Z,101228.47
2023-04-15T18:59:46.740Z,101232.13
2023-04-15T19:02:13.165Z,101243.13
2023-04-15T19:04:39.714Z,101240.78
2023-04-15T19:07:07.236Z,101247.06
2023-04-15T19:09:33.927Z,101244.78
2023-04-15T19:12:00.269Z,101244.66
2023-04-15T19:14:26.651Z,101253.47
2023-04-15T19:16:53.315Z,101257.34
2023-04-15T19:19:19.917Z,101263.63
2023-04-15T19:21:49.703Z,101265.59
2023-04-15T19:24:17.998Z,101266.66
2023-04-15T19:26:47.079Z,101264.75
2023-04-15T19:29:13.470Z,101268.16
2023-04-15T19:31:40.343Z,101275.25
2023-04-15T19:34:06.757Z,101275.69
2023-04-15T19:36:33.400Z,101282.19
2023-04-15T19:39:03.338Z,101275.94
2023-04-15T19:41:29.796Z,101281.72
2023-04-15T19:43:56.295Z,101284.31
2023-04-15T19:46:23.251Z,101291.25
2023-04-15T19:48:49.711Z,101291.38
2023-04-15T19:51:16.043Z,101296.34
2023-04-15T19:53:42.504Z,101304.72
2023-04-15T19:56:09.163Z,101300.00
2023-04-15T19:58:35.534Z,101300.31
2023-04-15T20:01:02.273Z,101305.75
2023-04-15T20:03:28.890Z,101308.00
2023-04-15T20:05:55.362Z,101308.47
2023-04-15T20:08:21.761Z,101305.16
2023-04-15T20:10:48.205Z,101310.69
2023-04-15T20:13:14.615Z,101319.66
2023-04-15T20:15:41.148Z,101309.50
2023-04-15T20:18:07.556Z,101321.97
2023-04-15T20:20:34.775Z,101316.28
2023-04-15T20:23:01.136Z,101319.84
2023-04-15T20:25:27.745Z,101327.41
2023-04-15T20:27:54.107Z,101327.63
2023-04-15T20:30:20.594Z,101329.25
2023-04-15T20:32:47.105Z,101330.78
2023-04-15T20:35:13.689Z,101327.25
2023-04-15T20:37:40.496Z,101343.13
2023-04-15T20:40:07.461Z,101337.25
2023-04-15T20:42:36.793Z,101332.88
2023-04-15T20:45:03.841Z,101334.19
2023-04-15T20:47:30.404Z,101328.16
2023-04-15T20:49:56.889Z,101335.31
2023-04-15T20:52:23.220Z,101339.81
2023-04-15T20:54:50.207Z,101336.50
2023-04-15T20:57:17.018Z,101350.38
2023-04-15T20:59:43.431Z,101339.97
2023-04-15T21:02:09.881Z,101344.50
2023-04-15T21:04:38.055Z,101344.13
2023-04-15T21:07:04.498Z,101348.56
2023-04-15T21:09:30.818Z,101342.31
2023-04-15T21:12:01.574Z,101340.44
2023-04-15T21:14:28.976Z,101345.84
2023-04-15T21:16:57.176Z,101345.38
2023-04-15T21:19:23.608Z,101351.56
2023-04-15T21:21:49.952Z,101348.25
2023-04-15T21:24:16.372Z,101347.56
2023-04-15T21:26:42.799Z,101353.25
2023-04-15T21:29:11.356Z,101351.56
2023-04-15T21:31:38.491Z,101356.84
2023-04-15T21:34:05.274Z,101367.09
2023-04-15T21:36:32.152Z,101363.75
2023-04-15T21:38:58.611Z,101365.88
2023-04-15T21:41:25.349Z,101371.91
2023-04-15T21:43:51.830Z,101374.63
2023-04-15T21:46:21.794Z,101372.81
2023-04-15T21:48:52.258Z,101380.94
2023-04-15T21:51:18.854Z,101373.41
2023-04-15T21:53:45.262Z,101380.94
2023-04-15T21:56:11.978Z,101384.72
2023-04-15T21:58:38.428Z,101387.66
2023-04-15T22:01:05.002Z,101394.28
2023-04-15T22:03:34.055Z,101395.56
2023-04-15T22:06:02.377Z,101398.88
2023-04-15T22:08:29.131Z,101407.22
2023-04-15T22:10:55.608Z,101401.41
2023-04-15T22:13:22.039Z,101407.44
2023-04-15T22:15:48.417Z,101405.19
2023-04-15T22:18:14.877Z,101404.72
2023-04-15T22:20:41.485Z,101404.69
2023-04-15T22:23:08.837Z,101412.56
2023-04-15T22:25:37.116Z,101413.03
2023-04-15T22:28:06.988Z,101411.63
2023-04-15T22:30:37.275Z,101409.88
2023-04-15T22:33:03.722Z,101411.38
2023-04-15T22:35:30.231Z,101422.81
2023-04-15T22:37:56.650Z,101417.56
2023-04-15T22:40:23.128Z,101424.28
2023-04-15T22:42:49.546Z,101428.41
2023-04-15T22:45:15.969Z,101423.06
2023-04-15T22:47:42.452Z,101433.06
2023-04-15T22:50:09.246Z,101436.75
2023-04-15T22:52:35.609Z,101431.81
2023-04-15T22:55:02.089Z,101433.84
2023-04-15T22:57:28.455Z,101431.72
2023-04-15T22:59:54.811Z,101444.25
2023-04-15T23:02:21.621Z,101446.31
2023-04-15T23:04:48.278Z,101443.19
2023-04-15T23:07:14.693Z,101444.25
2023-04-15T23:09:41.126Z,101449.69
2023-04-15T23:12:07.926Z,101451.31
2023-04-15T23:14:34.384Z,101450.88
2023-04-15T23:17:00.960Z,101454.63
2023-04-15T23:19:27.337Z,101450.88
2023-04-15T23:21:53.772Z,101454.19
2023-04-15T23:24:20.187Z,101457.94
2023-04-15T23:26:46.643Z,101459.38
2023-04-15T23:29:13.020Z,101442.91
2023-04-15T23:31:41.403Z,101448.50
2023-04-15T23:34:07.860Z,101453.84
2023-04-15T23:36:34.229Z,101452.00
2023-04-15T23:39:00.916Z,101456.75
2023-04-15T23:41:27.223Z,101455.09
2023-04-15T23:43:53.550Z,101460.94
2023-04-15T23:46:20.150Z,101464.69
2023-04-15T23:48:47.831Z,101461.06
2023-04-15T23:51:14.459Z,101456.47
2023-04-15T23:53:40.966Z,101462.75
2023-04-15T23:56:07.544Z,101465.88
2023-04-15T23:58:34.668Z,101463.78
